sensor_id;sensor_type;location;lat;lon;timestamp;pressure;altitude;pressure_sealevel;temperature;humidity
48810;BME280;40070;47.322;18.784;2023-02-10T00:01:30;1024.89;;;-3.44;60.13
48810;BME280;40070;47.322;18.784;2023-02-10T00:03:32;1024.91;;;-3.26;59.81
48810;BME280;40070;47.322;18.784;2023-02-10T00:05:35;1024.93;;;-3.30;59.99
48810;BME280;40070;47.322;18.784;2023-02-10T00:07:38;1024.96;;;-3.51;60.33
48810;BME280;40070;47.322;18.784;2023-02-10T00:09:40;1025.01;;;-4.22;62.08
48810;BME280;40070;47.322;18.784;2023-02-10T00:11:42;1025.01;;;-4.13;62.27
48810;BME280;40070;47.322;18.784;2023-02-10T00:13:45;1024.97;;;-3.74;61.30
48810;BME280;40070;47.322;18.784;2023-02-10T00:15:47;1024.93;;;-3.65;61.18
48810;BME280;40070;47.322;18.784;2023-02-10T00:17:50;1024.97;;;-3.44;60.61
48810;BME280;40070;47.322;18.784;2023-02-10T00:19:52;1024.95;;;-3.24;59.26
48810;BME280;40070;47.322;18.784;2023-02-10T00:21:54;1025.01;;;-3.39;59.72
48810;BME280;40070;47.322;18.784;2023-02-10T00:23:57;1025.04;;;-3.59;60.09
48810;BME280;40070;47.322;18.784;2023-02-10T00:26:02;1025.05;;;-3.52;60.07
48810;BME280;40070;47.322;18.784;2023-02-10T00:28:04;1025.06;;;-3.55;60.10
48810;BME280;40070;47.322;18.784;2023-02-10T00:30:07;1025.07;;;-3.75;60.70
48810;BME280;40070;47.322;18.784;2023-02-10T00:32:09;1025.04;;;-3.57;60.31
48810;BME280;40070;47.322;18.784;2023-02-10T00:34:13;1025.03;;;-3.63;60.04
48810;BME280;40070;47.322;18.784;2023-02-10T00:36:15;1025.01;;;-3.58;59.58
48810;BME280;40070;47.322;18.784;2023-02-10T00:38:18;1025.01;;;-3.54;59.41
48810;BME280;40070;47.322;18.784;2023-02-10T00:40:20;1024.98;;;-3.65;59.82
48810;BME280;40070;47.322;18.784;2023-02-10T00:42:23;1024.93;;;-3.63;60.14
48810;BME280;40070;47.322;18.784;2023-02-10T00:44:25;1024.98;;;-3.66;60.01
48810;BME280;40070;47.322;18.784;2023-02-10T00:46:27;1025.01;;;-3.65;60.15
48810;BME280;40070;47.322;18.784;2023-02-10T00:48:30;1024.99;;;-3.51;59.93
48810;BME280;40070;47.322;18.784;2023-02-10T00:50:32;1024.99;;;-3.59;60.06
48810;BME280;40070;47.322;18.784;2023-02-10T00:52:35;1024.99;;;-3.49;59.30
48810;BME280;40070;47.322;18.784;2023-02-10T00:54:37;1025.04;;;-4.01;60.55
48810;BME280;40070;47.322;18.784;2023-02-10T00:56:40;1025.02;;;-4.38;62.09
48810;BME280;40070;47.322;18.784;2023-02-10T00:58:42;1025.01;;;-3.95;61.11
48810;BME280;40070;47.322;18.784;2023-02-10T01:00:44;1025.01;;;-3.90;60.72
48810;BME280;40070;47.322;18.784;2023-02-10T01:02:47;1024.98;;;-3.89;60.26
48810;BME280;40070;47.322;18.784;2023-02-10T01:04:49;1024.94;;;-3.87;59.89
48810;BME280;40070;47.322;18.784;2023-02-10T01:06:51;1024.94;;;-3.87;59.92
48810;BME280;40070;47.322;18.784;2023-02-10T01:08:54;1024.96;;;-3.77;60.06
48810;BME280;40070;47.322;18.784;2023-02-10T01:11:00;1024.97;;;-4.08;60.97
48810;BME280;40070;47.322;18.784;2023-02-10T01:13:03;1024.95;;;-4.34;61.73
48810;BME280;40070;47.322;18.784;2023-02-10T01:15:06;1024.92;;;-4.04;61.05
48810;BME280;40070;47.322;18.784;2023-02-10T01:17:09;1024.88;;;-3.77;60.42
48810;BME280;40070;47.322;18.784;2023-02-10T01:19:11;1024.79;;;-3.70;60.09
48810;BME280;40070;47.322;18.784;2023-02-10T01:21:15;1024.87;;;-3.73;59.91
48810;BME280;40070;47.322;18.784;2023-02-10T01:23:17;1024.83;;;-3.78;59.66
48810;BME280;40070;47.322;18.784;2023-02-10T01:25:19;1024.80;;;-3.66;59.23
48810;BME280;40070;47.322;18.784;2023-02-10T01:27:22;1024.72;;;-3.64;59.45
48810;BME280;40070;47.322;18.784;2023-02-10T01:29:24;1024.74;;;-3.83;60.42
48810;BME280;40070;47.322;18.784;2023-02-10T01:31:26;1024.70;;;-3.83;60.32
48810;BME280;40070;47.322;18.784;2023-02-10T01:33:29;1024.71;;;-4.07;60.54
48810;BME280;40070;47.322;18.784;2023-02-10T01:35:31;1024.70;;;-4.03;60.50
48810;BME280;40070;47.322;18.784;2023-02-10T01:37:34;1024.66;;;-3.94;59.85
48810;BME280;40070;47.322;18.784;2023-02-10T01:39:36;1024.67;;;-3.90;60.07
48810;BME280;40070;47.322;18.784;2023-02-10T01:41:38;1024.67;;;-3.80;60.22
48810;BME280;40070;47.322;18.784;2023-02-10T01:43:54;1024.68;;;-3.94;60.32
48810;BME280;40070;47.322;18.784;2023-02-10T01:45:56;1024.67;;;-3.88;60.00
48810;BME280;40070;47.322;18.784;2023-02-10T01:47:59;1024.65;;;-4.11;60.84
48810;BME280;40070;47.322;18.784;2023-02-10T01:50:01;1024.66;;;-3.89;60.50
48810;BME280;40070;47.322;18.784;2023-02-10T01:52:08;1024.67;;;-4.14;60.60
48810;BME280;40070;47.322;18.784;2023-02-10T01:54:13;1024.62;;;-4.25;61.13
48810;BME280;40070;47.322;18.784;2023-02-10T01:56:17;1024.63;;;-4.13;60.38
48810;BME280;40070;47.322;18.784;2023-02-10T01:58:20;1024.62;;;-4.17;60.80
48810;BME280;40070;47.322;18.784;2023-02-10T02:00:23;1024.59;;;-4.14;60.31
48810;BME280;40070;47.322;18.784;2023-02-10T02:02:26;1024.57;;;-4.20;59.94
48810;BME280;40070;47.322;18.784;2023-02-10T02:04:29;1024.57;;;-4.17;59.77
48810;BME280;40070;47.322;18.784;2023-02-10T02:06:31;1024.57;;;-4.73;60.99
48810;BME280;40070;47.322;18.784;2023-02-10T02:08:35;1024.58;;;-5.29;62.78
48810;BME280;40070;47.322;18.784;2023-02-10T02:10:40;1024.60;;;-5.01;62.35
48810;BME280;40070;47.322;18.784;2023-02-10T02:12:50;1024.66;;;-4.81;61.88
48810;BME280;40070;47.322;18.784;2023-02-10T02:15:00;1024.67;;;-5.23;62.90
48810;BME280;40070;47.322;18.784;2023-02-10T02:28:45;1024.63;;;-4.65;60.35
48810;BME280;40070;47.322;18.784;2023-02-10T02:31:08;1024.62;;;-4.59;60.45
48810;BME280;40070;47.322;18.784;2023-02-10T02:33:19;1024.60;;;-4.61;60.73
48810;BME280;40070;47.322;18.784;2023-02-10T02:35:24;1024.59;;;-4.58;60.93
48810;BME280;40070;47.322;18.784;2023-02-10T02:37:29;1024.58;;;-4.44;60.60
48810;BME280;40070;47.322;18.784;2023-02-10T02:39:32;1024.51;;;-4.33;60.05
48810;BME280;40070;47.322;18.784;2023-02-10T02:41:34;1024.50;;;-4.30;59.85
48810;BME280;40070;47.322;18.784;2023-02-10T02:43:37;1024.51;;;-4.38;59.97
48810;BME280;40070;47.322;18.784;2023-02-10T02:45:45;1024.49;;;-4.41;60.40
48810;BME280;40070;47.322;18.784;2023-02-10T02:47:54;1024.47;;;-4.61;60.83
48810;BME280;40070;47.322;18.784;2023-02-10T02:50:12;1024.48;;;-4.54;60.35
48810;BME280;40070;47.322;18.784;2023-02-10T02:52:20;1024.48;;;-4.54;60.09
48810;BME280;40070;47.322;18.784;2023-02-10T02:54:25;1024.50;;;-4.84;60.73
48810;BME280;40070;47.322;18.784;2023-02-10T02:59:15;1024.50;;;-5.20;61.37
48810;BME280;40070;47.322;18.784;2023-02-10T03:01:25;1024.54;;;-5.23;61.27
48810;BME280;40070;47.322;18.784;2023-02-10T03:03:35;1024.61;;;-5.11;61.26
48810;BME280;40070;47.322;18.784;2023-02-10T03:05:37;1024.59;;;-4.92;60.37
48810;BME280;40070;47.322;18.784;2023-02-10T03:07:39;1024.54;;;-5.07;60.46
48810;BME280;40070;47.322;18.784;2023-02-10T03:09:42;1024.52;;;-5.06;60.69
48810;BME280;40070;47.322;18.784;2023-02-10T03:11:44;1024.53;;;-4.78;60.11
48810;BME280;40070;47.322;18.784;2023-02-10T03:13:47;1024.57;;;-5.04;61.26
48810;BME280;40070;47.322;18.784;2023-02-10T03:15:49;1024.60;;;-4.92;61.50
48810;BME280;40070;47.322;18.784;2023-02-10T03:17:51;1024.67;;;-4.75;61.58
48810;BME280;40070;47.322;18.784;2023-02-10T03:19:54;1024.68;;;-4.94;61.50
48810;BME280;40070;47.322;18.784;2023-02-10T03:21:56;1024.66;;;-4.94;61.55
48810;BME280;40070;47.322;18.784;2023-02-10T03:23:59;1024.61;;;-4.74;60.80
48810;BME280;40070;47.322;18.784;2023-02-10T03:26:01;1024.59;;;-4.61;60.37
48810;BME280;40070;47.322;18.784;2023-02-10T03:28:03;1024.65;;;-4.91;60.74
48810;BME280;40070;47.322;18.784;2023-02-10T03:30:06;1024.67;;;-5.22;61.51
48810;BME280;40070;47.322;18.784;2023-02-10T03:32:08;1024.68;;;-5.20;61.39
48810;BME280;40070;47.322;18.784;2023-02-10T03:34:11;1024.67;;;-4.97;60.78
48810;BME280;40070;47.322;18.784;2023-02-10T03:36:13;1024.70;;;-4.90;60.50
48810;BME280;40070;47.322;18.784;2023-02-10T03:38:16;1024.67;;;-4.60;59.91
48810;BME280;40070;47.322;18.784;2023-02-10T03:40:18;1024.66;;;-4.74;60.10
48810;BME280;40070;47.322;18.784;2023-02-10T03:42:21;1024.62;;;-4.74;60.20
48810;BME280;40070;47.322;18.784;2023-02-10T03:44:23;1024.56;;;-4.79;60.00
48810;BME280;40070;47.322;18.784;2023-02-10T03:46:25;1024.60;;;-4.62;59.44
48810;BME280;40070;47.322;18.784;2023-02-10T03:48:28;1024.59;;;-4.70;59.49
48810;BME280;40070;47.322;18.784;2023-02-10T03:50:30;1024.63;;;-4.49;58.51
48810;BME280;40070;47.322;18.784;2023-02-10T03:52:32;1024.59;;;-4.63;58.84
48810;BME280;40070;47.322;18.784;2023-02-10T03:54:35;1024.68;;;-4.74;59.22
48810;BME280;40070;47.322;18.784;2023-02-10T03:56:37;1024.60;;;-4.65;58.92
48810;BME280;40070;47.322;18.784;2023-02-10T03:58:39;1024.55;;;-4.66;59.41
48810;BME280;40070;47.322;18.784;2023-02-10T04:00:42;1024.55;;;-4.94;60.27
48810;BME280;40070;47.322;18.784;2023-02-10T04:02:44;1024.52;;;-5.03;60.47
48810;BME280;40070;47.322;18.784;2023-02-10T04:04:47;1024.49;;;-5.01;60.06
48810;BME280;40070;47.322;18.784;2023-02-10T04:06:49;1024.46;;;-5.09;59.75
48810;BME280;40070;47.322;18.784;2023-02-10T04:08:51;1024.43;;;-5.15;59.64
48810;BME280;40070;47.322;18.784;2023-02-10T04:10:54;1024.45;;;-5.08;60.02
48810;BME280;40070;47.322;18.784;2023-02-10T04:12:56;1024.38;;;-5.30;60.47
48810;BME280;40070;47.322;18.784;2023-02-10T04:14:58;1024.33;;;-5.05;60.04
48810;BME280;40070;47.322;18.784;2023-02-10T04:17:01;1024.31;;;-5.11;59.79
48810;BME280;40070;47.322;18.784;2023-02-10T04:19:03;1024.27;;;-5.00;59.34
48810;BME280;40070;47.322;18.784;2023-02-10T04:21:06;1024.31;;;-5.09;59.16
48810;BME280;40070;47.322;18.784;2023-02-10T04:23:09;1024.22;;;-5.04;59.24
48810;BME280;40070;47.322;18.784;2023-02-10T04:25:11;1024.24;;;-5.22;59.63
48810;BME280;40070;47.322;18.784;2023-02-10T04:27:14;1024.26;;;-5.02;59.37
48810;BME280;40070;47.322;18.784;2023-02-10T04:29:16;1024.31;;;-5.29;60.52
48810;BME280;40070;47.322;18.784;2023-02-10T04:31:18;1024.38;;;-5.86;61.94
48810;BME280;40070;47.322;18.784;2023-02-10T04:33:21;1024.39;;;-5.68;61.37
48810;BME280;40070;47.322;18.784;2023-02-10T04:35:23;1024.39;;;-5.58;61.29
48810;BME280;40070;47.322;18.784;2023-02-10T04:37:26;1024.39;;;-5.35;60.49
48810;BME280;40070;47.322;18.784;2023-02-10T04:39:28;1024.32;;;-5.32;60.47
48810;BME280;40070;47.322;18.784;2023-02-10T04:41:31;1024.36;;;-5.31;59.86
48810;BME280;40070;47.322;18.784;2023-02-10T04:43:33;1024.33;;;-5.30;59.61
48810;BME280;40070;47.322;18.784;2023-02-10T04:45:35;1024.34;;;-5.27;59.67
48810;BME280;40070;47.322;18.784;2023-02-10T04:47:38;1024.35;;;-5.28;59.98
48810;BME280;40070;47.322;18.784;2023-02-10T04:49:40;1024.34;;;-5.08;59.32
48810;BME280;40070;47.322;18.784;2023-02-10T04:51:43;1024.44;;;-5.58;60.09
48810;BME280;40070;47.322;18.784;2023-02-10T04:53:45;1024.44;;;-5.65;60.50
48810;BME280;40070;47.322;18.784;2023-02-10T04:55:47;1024.43;;;-5.61;60.39
48810;BME280;40070;47.322;18.784;2023-02-10T04:57:50;1024.50;;;-5.59;60.31
48810;BME280;40070;47.322;18.784;2023-02-10T04:59:52;1024.54;;;-5.66;60.70
48810;BME280;40070;47.322;18.784;2023-02-10T05:01:54;1024.64;;;-5.59;60.59
48810;BME280;40070;47.322;18.784;2023-02-10T05:03:57;1024.67;;;-5.50;60.53
48810;BME280;40070;47.322;18.784;2023-02-10T05:05:59;1024.74;;;-5.92;60.99
48810;BME280;40070;47.322;18.784;2023-02-10T05:08:01;1024.86;;;-6.45;62.82
48810;BME280;40070;47.322;18.784;2023-02-10T05:10:04;1024.85;;;-6.11;62.25
48810;BME280;40070;47.322;18.784;2023-02-10T05:12:06;1024.85;;;-5.70;61.18
48810;BME280;40070;47.322;18.784;2023-02-10T05:14:09;1024.89;;;-5.66;60.77
48810;BME280;40070;47.322;18.784;2023-02-10T05:16:12;1025.02;;;-5.94;61.20
48810;BME280;40070;47.322;18.784;2023-02-10T05:18:14;1025.05;;;-5.68;61.08
48810;BME280;40070;47.322;18.784;2023-02-10T05:20:17;1025.03;;;-5.62;61.10
48810;BME280;40070;47.322;18.784;2023-02-10T05:22:19;1025.04;;;-5.46;60.74
48810;BME280;40070;47.322;18.784;2023-02-10T05:24:21;1025.03;;;-5.33;60.35
48810;BME280;40070;47.322;18.784;2023-02-10T05:26:24;1025.00;;;-5.38;60.38
48810;BME280;40070;47.322;18.784;2023-02-10T05:28:26;1024.99;;;-5.17;60.10
48810;BME280;40070;47.322;18.784;2023-02-10T05:30:28;1025.01;;;-5.65;61.66
48810;BME280;40070;47.322;18.784;2023-02-10T05:32:31;1024.99;;;-5.30;60.46
48810;BME280;40070;47.322;18.784;2023-02-10T05:34:33;1025.06;;;-5.41;60.27
48810;BME280;40070;47.322;18.784;2023-02-10T05:36:36;1025.02;;;-5.27;60.02
48810;BME280;40070;47.322;18.784;2023-02-10T05:38:38;1025.01;;;-5.46;60.21
48810;BME280;40070;47.322;18.784;2023-02-10T05:40:41;1025.00;;;-6.12;61.78
48810;BME280;40070;47.322;18.784;2023-02-10T05:42:43;1025.02;;;-5.89;61.75
48810;BME280;40070;47.322;18.784;2023-02-10T05:44:45;1025.05;;;-6.13;62.20
48810;BME280;40070;47.322;18.784;2023-02-10T05:46:48;1025.05;;;-5.58;60.69
48810;BME280;40070;47.322;18.784;2023-02-10T05:48:50;1025.10;;;-5.36;59.84
48810;BME280;40070;47.322;18.784;2023-02-10T05:50:53;1025.19;;;-5.92;60.64
48810;BME280;40070;47.322;18.784;2023-02-10T05:52:55;1025.20;;;-5.86;61.11
48810;BME280;40070;47.322;18.784;2023-02-10T05:54:58;1025.19;;;-5.91;61.34
48810;BME280;40070;47.322;18.784;2023-02-10T05:57:00;1025.15;;;-5.96;61.50
48810;BME280;40070;47.322;18.784;2023-02-10T05:59:03;1025.13;;;-5.57;60.56
48810;BME280;40070;47.322;18.784;2023-02-10T06:01:06;1025.12;;;-6.18;61.90
48810;BME280;40070;47.322;18.784;2023-02-10T06:03:09;1025.14;;;-5.83;61.61
48810;BME280;40070;47.322;18.784;2023-02-10T06:05:11;1025.20;;;-5.50;60.42
48810;BME280;40070;47.322;18.784;2023-02-10T06:07:13;1025.16;;;-5.31;60.08
48810;BME280;40070;47.322;18.784;2023-02-10T06:09:16;1025.13;;;-5.30;60.07
48810;BME280;40070;47.322;18.784;2023-02-10T06:11:18;1025.11;;;-5.42;60.28
48810;BME280;40070;47.322;18.784;2023-02-10T06:13:21;1025.20;;;-5.72;60.71
48810;BME280;40070;47.322;18.784;2023-02-10T06:15:23;1025.17;;;-5.75;60.68
48810;BME280;40070;47.322;18.784;2023-02-10T06:17:25;1025.13;;;-5.35;59.75
48810;BME280;40070;47.322;18.784;2023-02-10T06:19:28;1025.10;;;-5.43;60.05
48810;BME280;40070;47.322;18.784;2023-02-10T06:21:30;1025.14;;;-5.28;59.63
48810;BME280;40070;47.322;18.784;2023-02-10T06:23:32;1025.11;;;-5.30;60.15
48810;BME280;40070;47.322;18.784;2023-02-10T06:25:35;1025.10;;;-4.96;59.53
48810;BME280;40070;47.322;18.784;2023-02-10T06:27:37;1025.06;;;-5.25;60.32
48810;BME280;40070;47.322;18.784;2023-02-10T06:29:39;1025.09;;;-5.84;61.56
48810;BME280;40070;47.322;18.784;2023-02-10T06:31:42;1025.02;;;-6.06;62.96
48810;BME280;40070;47.322;18.784;2023-02-10T06:33:44;1025.07;;;-5.65;62.69
48810;BME280;40070;47.322;18.784;2023-02-10T06:35:46;1025.13;;;-5.18;61.58
48810;BME280;40070;47.322;18.784;2023-02-10T06:37:49;1025.21;;;-5.31;61.65
48810;BME280;40070;47.322;18.784;2023-02-10T06:39:51;1025.16;;;-4.91;61.01
48810;BME280;40070;47.322;18.784;2023-02-10T06:41:54;1025.21;;;-4.71;60.54
48810;BME280;40070;47.322;18.784;2023-02-10T06:43:57;1025.32;;;-4.99;61.55
48810;BME280;40070;47.322;18.784;2023-02-10T06:45:59;1025.41;;;-4.88;61.32
48810;BME280;40070;47.322;18.784;2023-02-10T06:48:01;1025.52;;;-4.94;61.60
48810;BME280;40070;47.322;18.784;2023-02-10T06:50:04;1025.55;;;-4.94;61.76
48810;BME280;40070;47.322;18.784;2023-02-10T06:52:06;1025.61;;;-5.59;63.31
48810;BME280;40070;47.322;18.784;2023-02-10T06:54:09;1025.68;;;-5.75;64.10
48810;BME280;40070;47.322;18.784;2023-02-10T06:56:11;1025.76;;;-6.00;65.30
48810;BME280;40070;47.322;18.784;2023-02-10T06:58:14;1025.77;;;-5.78;65.05
48810;BME280;40070;47.322;18.784;2023-02-10T07:00:17;1025.82;;;-5.90;65.48
48810;BME280;40070;47.322;18.784;2023-02-10T07:02:19;1025.85;;;-5.57;64.95
48810;BME280;40070;47.322;18.784;2023-02-10T07:04:21;1025.87;;;-5.13;64.13
48810;BME280;40070;47.322;18.784;2023-02-10T07:06:24;1025.80;;;-4.75;62.88
48810;BME280;40070;47.322;18.784;2023-02-10T07:08:26;1025.73;;;-4.57;61.86
48810;BME280;40070;47.322;18.784;2023-02-10T07:10:29;1025.74;;;-4.47;61.73
48810;BME280;40070;47.322;18.784;2023-02-10T07:12:32;1025.72;;;-4.76;63.30
48810;BME280;40070;47.322;18.784;2023-02-10T07:14:34;1025.59;;;-4.54;62.75
48810;BME280;40070;47.322;18.784;2023-02-10T07:16:36;1025.49;;;-4.38;62.98
48810;BME280;40070;47.322;18.784;2023-02-10T07:18:39;1025.56;;;-4.11;62.67
48810;BME280;40070;47.322;18.784;2023-02-10T07:20:41;1025.51;;;-3.83;62.22
48810;BME280;40070;47.322;18.784;2023-02-10T07:22:43;1025.58;;;-3.57;61.70
48810;BME280;40070;47.322;18.784;2023-02-10T07:24:46;1025.60;;;-3.24;60.88
48810;BME280;40070;47.322;18.784;2023-02-10T07:26:48;1025.66;;;-3.09;60.15
48810;BME280;40070;47.322;18.784;2023-02-10T07:28:51;1025.57;;;-3.26;60.42
48810;BME280;40070;47.322;18.784;2023-02-10T07:30:53;1025.58;;;-3.27;60.48
48810;BME280;40070;47.322;18.784;2023-02-10T07:32:55;1025.60;;;-3.11;60.84
48810;BME280;40070;47.322;18.784;2023-02-10T07:34:58;1025.64;;;-2.78;60.39
48810;BME280;40070;47.322;18.784;2023-02-10T07:37:00;1025.64;;;-2.42;59.55
48810;BME280;40070;47.322;18.784;2023-02-10T07:39:02;1025.65;;;-2.41;59.13
48810;BME280;40070;47.322;18.784;2023-02-10T07:41:07;1025.63;;;-2.02;58.81
48810;BME280;40070;47.322;18.784;2023-02-10T07:43:09;1025.59;;;-2.10;58.75
48810;BME280;40070;47.322;18.784;2023-02-10T07:45:12;1025.60;;;-2.38;60.00
48810;BME280;40070;47.322;18.784;2023-02-10T07:47:14;1025.60;;;-2.08;59.69
48810;BME280;40070;47.322;18.784;2023-02-10T07:49:16;1025.56;;;-2.18;59.46
48810;BME280;40070;47.322;18.784;2023-02-10T07:51:19;1025.52;;;-2.03;59.47
48810;BME280;40070;47.322;18.784;2023-02-10T07:53:21;1025.54;;;-1.88;59.49
48810;BME280;40070;47.322;18.784;2023-02-10T07:55:24;1025.56;;;-1.91;59.14
48810;BME280;40070;47.322;18.784;2023-02-10T07:57:26;1025.62;;;-1.70;58.78
48810;BME280;40070;47.322;18.784;2023-02-10T07:59:28;1025.53;;;-1.64;58.71
48810;BME280;40070;47.322;18.784;2023-02-10T08:01:31;1025.48;;;-1.62;59.42
48810;BME280;40070;47.322;18.784;2023-02-10T08:03:33;1025.50;;;-1.66;59.43
48810;BME280;40070;47.322;18.784;2023-02-10T08:05:36;1025.56;;;-1.69;60.66
48810;BME280;40070;47.322;18.784;2023-02-10T08:07:38;1025.67;;;-1.41;59.83
48810;BME280;40070;47.322;18.784;2023-02-10T08:09:41;1025.68;;;-1.21;59.09
48810;BME280;40070;47.322;18.784;2023-02-10T08:11:43;1025.70;;;-1.33;59.06
48810;BME280;40070;47.322;18.784;2023-02-10T08:13:45;1025.62;;;-0.95;58.57
48810;BME280;40070;47.322;18.784;2023-02-10T08:15:48;1025.60;;;-0.87;58.59
48810;BME280;40070;47.322;18.784;2023-02-10T08:17:50;1025.57;;;-0.46;57.97
48810;BME280;40070;47.322;18.784;2023-02-10T08:19:52;1025.53;;;-0.27;58.28
48810;BME280;40070;47.322;18.784;2023-02-10T08:21:55;1025.61;;;-0.04;57.84
48810;BME280;40070;47.322;18.784;2023-02-10T08:23:57;1025.67;;;0.09;57.53
48810;BME280;40070;47.322;18.784;2023-02-10T08:26:06;1025.68;;;0.22;57.16
48810;BME280;40070;47.322;18.784;2023-02-10T08:28:09;1025.71;;;0.10;57.40
48810;BME280;40070;47.322;18.784;2023-02-10T08:30:11;1025.74;;;0.33;57.33
48810;BME280;40070;47.322;18.784;2023-02-10T08:32:14;1025.76;;;0.40;57.45
48810;BME280;40070;47.322;18.784;2023-02-10T08:34:17;1025.75;;;0.51;57.30
48810;BME280;40070;47.322;18.784;2023-02-10T08:36:20;1025.72;;;0.60;57.35
48810;BME280;40070;47.322;18.784;2023-02-10T08:38:22;1025.70;;;0.85;56.05
48810;BME280;40070;47.322;18.784;2023-02-10T08:40:25;1025.66;;;0.81;55.46
48810;BME280;40070;47.322;18.784;2023-02-10T08:42:27;1025.65;;;0.85;55.46
48810;BME280;40070;47.322;18.784;2023-02-10T08:44:30;1025.60;;;0.99;55.15
48810;BME280;40070;47.322;18.784;2023-02-10T08:46:32;1025.58;;;1.10;55.01
48810;BME280;40070;47.322;18.784;2023-02-10T08:48:35;1025.56;;;1.27;54.78
48810;BME280;40070;47.322;18.784;2023-02-10T08:50:38;1025.64;;;1.60;54.27
48810;BME280;40070;47.322;18.784;2023-02-10T08:52:40;1025.68;;;1.69;54.14
48810;BME280;40070;47.322;18.784;2023-02-10T08:54:43;1025.66;;;1.68;54.37
48810;BME280;40070;47.322;18.784;2023-02-10T08:56:45;1025.66;;;1.56;53.98
48810;BME280;40070;47.322;18.784;2023-02-10T08:58:47;1025.69;;;1.72;53.76
48810;BME280;40070;47.322;18.784;2023-02-10T09:00:50;1025.66;;;2.03;53.75
48810;BME280;40070;47.322;18.784;2023-02-10T09:02:52;1025.70;;;2.12;53.48
48810;BME280;40070;47.322;18.784;2023-02-10T09:04:55;1025.75;;;1.91;53.99
48810;BME280;40070;47.322;18.784;2023-02-10T09:06:57;1025.73;;;2.16;54.07
48810;BME280;40070;47.322;18.784;2023-02-10T09:08:59;1025.77;;;2.56;53.46
48810;BME280;40070;47.322;18.784;2023-02-10T09:11:04;1025.79;;;2.60;53.05
48810;BME280;40070;47.322;18.784;2023-02-10T09:13:06;1025.77;;;2.59;53.31
48810;BME280;40070;47.322;18.784;2023-02-10T09:15:09;1025.70;;;2.84;52.32
48810;BME280;40070;47.322;18.784;2023-02-10T09:17:12;1025.69;;;3.02;52.62
48810;BME280;40070;47.322;18.784;2023-02-10T09:19:14;1025.64;;;3.22;51.66
48810;BME280;40070;47.322;18.784;2023-02-10T09:21:16;1025.60;;;3.43;50.96
48810;BME280;40070;47.322;18.784;2023-02-10T09:23:19;1025.61;;;3.38;51.22
48810;BME280;40070;47.322;18.784;2023-02-10T09:25:21;1025.54;;;3.55;50.94
48810;BME280;40070;47.322;18.784;2023-02-10T09:27:24;1025.51;;;3.69;50.65
48810;BME280;40070;47.322;18.784;2023-02-10T09:29:26;1025.55;;;3.75;50.16
48810;BME280;40070;47.322;18.784;2023-02-10T09:31:28;1025.54;;;3.16;51.29
48810;BME280;40070;47.322;18.784;2023-02-10T09:33:31;1025.54;;;2.70;52.33
48810;BME280;40070;47.322;18.784;2023-02-10T09:35:33;1025.52;;;3.11;52.42
48810;BME280;40070;47.322;18.784;2023-02-10T09:37:35;1025.47;;;3.59;51.35
48810;BME280;40070;47.322;18.784;2023-02-10T09:39:38;1025.49;;;3.51;51.65
48810;BME280;40070;47.322;18.784;2023-02-10T09:42:03;1025.46;;;3.54;51.91
48810;BME280;40070;47.322;18.784;2023-02-10T09:44:06;1025.49;;;3.98;51.30
48810;BME280;40070;47.322;18.784;2023-02-10T09:48:31;1025.54;;;3.64;51.23
48810;BME280;40070;47.322;18.784;2023-02-10T09:50:50;1025.60;;;3.97;49.84
48810;BME280;40070;47.322;18.784;2023-02-10T09:57:38;1025.56;;;4.65;48.35
48810;BME280;40070;47.322;18.784;2023-02-10T09:59:43;1025.53;;;4.77;47.16
48810;BME280;40070;47.322;18.784;2023-02-10T10:01:47;1025.45;;;4.76;46.95
48810;BME280;40070;47.322;18.784;2023-02-10T10:04:00;1025.49;;;5.13;46.23
48810;BME280;40070;47.322;18.784;2023-02-10T10:08:45;1025.42;;;4.87;46.67
48810;BME280;40070;47.322;18.784;2023-02-10T10:10:50;1025.40;;;4.52;47.70
48810;BME280;40070;47.322;18.784;2023-02-10T10:12:53;1025.33;;;4.92;47.17
48810;BME280;40070;47.322;18.784;2023-02-10T10:14:56;1025.42;;;4.78;46.27
48810;BME280;40070;47.322;18.784;2023-02-10T10:19:17;1025.39;;;5.26;45.53
48810;BME280;40070;47.322;18.784;2023-02-10T10:21:34;1025.33;;;5.30;45.20
48810;BME280;40070;47.322;18.784;2023-02-10T10:23:48;1025.31;;;5.70;45.05
48810;BME280;40070;47.322;18.784;2023-02-10T10:30:38;1025.20;;;6.14;43.51
48810;BME280;40070;47.322;18.784;2023-02-10T10:32:51;1025.16;;;6.60;42.95
48810;BME280;40070;47.322;18.784;2023-02-10T10:34:55;1025.21;;;6.39;41.64
48810;BME280;40070;47.322;18.784;2023-02-10T10:36:57;1025.11;;;6.63;41.58
48810;BME280;40070;47.322;18.784;2023-02-10T10:39:03;1025.12;;;6.93;41.46
48810;BME280;40070;47.322;18.784;2023-02-10T10:41:10;1025.13;;;6.95;41.70
48810;BME280;40070;47.322;18.784;2023-02-10T10:43:16;1025.09;;;7.07;40.79
48810;BME280;40070;47.322;18.784;2023-02-10T10:45:20;1025.12;;;6.97;40.35
48810;BME280;40070;47.322;18.784;2023-02-10T10:47:39;1025.07;;;6.77;40.17
48810;BME280;40070;47.322;18.784;2023-02-10T10:49:43;1025.12;;;7.21;39.50
48810;BME280;40070;47.322;18.784;2023-02-10T10:51:46;1025.15;;;6.91;40.09
48810;BME280;40070;47.322;18.784;2023-02-10T10:53:50;1025.03;;;7.34;39.16
48810;BME280;40070;47.322;18.784;2023-02-10T10:55:53;1025.04;;;6.46;39.19
48810;BME280;40070;47.322;18.784;2023-02-10T10:57:56;1024.98;;;6.44;39.42
48810;BME280;40070;47.322;18.784;2023-02-10T11:00:13;1024.87;;;6.52;39.86
48810;BME280;40070;47.322;18.784;2023-02-10T11:02:18;1024.89;;;6.58;39.27
48810;BME280;40070;47.322;18.784;2023-02-10T11:04:22;1024.84;;;6.60;39.60
48810;BME280;40070;47.322;18.784;2023-02-10T11:06:24;1024.82;;;6.54;39.43
48810;BME280;40070;47.322;18.784;2023-02-10T11:08:29;1024.75;;;6.27;39.96
48810;BME280;40070;47.322;18.784;2023-02-10T11:10:35;1024.68;;;6.12;40.23
48810;BME280;40070;47.322;18.784;2023-02-10T11:12:39;1024.66;;;6.74;39.68
48810;BME280;40070;47.322;18.784;2023-02-10T11:14:43;1024.56;;;7.02;38.85
48810;BME280;40070;47.322;18.784;2023-02-10T11:16:46;1024.55;;;6.71;38.78
48810;BME280;40070;47.322;18.784;2023-02-10T11:18:53;1024.56;;;6.53;38.94
48810;BME280;40070;47.322;18.784;2023-02-10T11:20:59;1024.55;;;6.74;38.03
48810;BME280;40070;47.322;18.784;2023-02-10T11:23:03;1024.52;;;6.94;38.27
48810;BME280;40070;47.322;18.784;2023-02-10T11:25:24;1024.53;;;6.88;38.07
48810;BME280;40070;47.322;18.784;2023-02-10T11:27:27;1024.56;;;7.26;37.74